sensor_id;sensor_type;location;lat;lon;timestamp;P1;durP1;ratioP1;P2;durP2;ratioP2
16967;SDS011;64862;54.398;10.126;2024-01-07T00:01:26;7.32;;;1.50;;
16967;SDS011;64862;54.398;10.126;2024-01-07T00:11:31;5.95;;;1.30;;
16967;SDS011;64862;54.398;10.126;2024-01-07T00:21:33;5.68;;;1.38;;
16967;SDS011;64862;54.398;10.126;2024-01-07T00:31:36;4.15;;;0.98;;
16967;SDS011;64862;54.398;10.126;2024-01-07T00:41:38;7.07;;;1.40;;
16967;SDS011;64862;54.398;10.126;2024-01-07T00:51:41;11.70;;;2.80;;
16967;SDS011;64862;54.398;10.126;2024-01-07T01:01:43;5.90;;;2.08;;
16967;SDS011;64862;54.398;10.126;2024-01-07T01:11:46;10.20;;;2.50;;
16967;SDS011;64862;54.398;10.126;2024-01-07T01:21:50;9.00;;;2.67;;
16967;SDS011;64862;54.398;10.126;2024-01-07T01:31:53;5.78;;;1.95;;
16967;SDS011;64862;54.398;10.126;2024-01-07T01:41:55;6.82;;;2.10;;
16967;SDS011;64862;54.398;10.126;2024-01-07T01:51:59;9.13;;;2.10;;
16967;SDS011;64862;54.398;10.126;2024-01-07T02:02:01;7.65;;;2.08;;
16967;SDS011;64862;54.398;10.126;2024-01-07T02:12:06;7.85;;;2.20;;
16967;SDS011;64862;54.398;10.126;2024-01-07T02:22:11;7.95;;;2.40;;
16967;SDS011;64862;54.398;10.126;2024-01-07T02:32:15;9.68;;;2.15;;
16967;SDS011;64862;54.398;10.126;2024-01-07T02:42:17;7.78;;;2.35;;
16967;SDS011;64862;54.398;10.126;2024-01-07T02:52:20;7.82;;;1.95;;
16967;SDS011;64862;54.398;10.126;2024-01-07T03:02:22;4.43;;;2.10;;
16967;SDS011;64862;54.398;10.126;2024-01-07T03:12:25;7.22;;;2.03;;
16967;SDS011;64862;54.398;10.126;2024-01-07T03:22:27;5.75;;;2.00;;
16967;SDS011;64862;54.398;10.126;2024-01-07T03:32:30;7.82;;;2.00;;
16967;SDS011;64862;54.398;10.126;2024-01-07T03:42:32;9.38;;;2.17;;
16967;SDS011;64862;54.398;10.126;2024-01-07T03:52:36;4.60;;;1.88;;
16967;SDS011;64862;54.398;10.126;2024-01-07T04:02:37;7.72;;;2.10;;
16967;SDS011;64862;54.398;10.126;2024-01-07T04:12:41;5.85;;;1.92;;
16967;SDS011;64862;54.398;10.126;2024-01-07T04:22:43;7.85;;;2.55;;
16967;SDS011;64862;54.398;10.126;2024-01-07T04:32:46;9.40;;;2.20;;
16967;SDS011;64862;54.398;10.126;2024-01-07T04:42:49;4.88;;;1.90;;
16967;SDS011;64862;54.398;10.126;2024-01-07T04:52:52;6.13;;;2.10;;
16967;SDS011;64862;54.398;10.126;2024-01-07T05:02:54;6.65;;;1.70;;
16967;SDS011;64862;54.398;10.126;2024-01-07T05:12:58;6.90;;;2.15;;
16967;SDS011;64862;54.398;10.126;2024-01-07T05:23:05;10.02;;;1.83;;
16967;SDS011;64862;54.398;10.126;2024-01-07T05:33:09;7.57;;;1.95;;
16967;SDS011;64862;54.398;10.126;2024-01-07T05:43:11;6.15;;;1.80;;
16967;SDS011;64862;54.398;10.126;2024-01-07T05:53:15;6.75;;;1.90;;
16967;SDS011;64862;54.398;10.126;2024-01-07T06:03:19;4.78;;;1.88;;
16967;SDS011;64862;54.398;10.126;2024-01-07T06:13:22;3.53;;;1.60;;
16967;SDS011;64862;54.398;10.126;2024-01-07T06:23:27;6.25;;;2.03;;
16967;SDS011;64862;54.398;10.126;2024-01-07T06:33:30;6.47;;;1.73;;
16967;SDS011;64862;54.398;10.126;2024-01-07T06:43:33;5.45;;;1.80;;
16967;SDS011;64862;54.398;10.126;2024-01-07T06:53:36;6.18;;;1.70;;
16967;SDS011;64862;54.398;10.126;2024-01-07T07:03:39;4.13;;;1.60;;
16967;SDS011;64862;54.398;10.126;2024-01-07T07:13:43;4.30;;;1.83;;
16967;SDS011;64862;54.398;10.126;2024-01-07T07:23:45;4.00;;;1.50;;
16967;SDS011;64862;54.398;10.126;2024-01-07T07:33:50;5.45;;;1.70;;
16967;SDS011;64862;54.398;10.126;2024-01-07T07:43:53;4.93;;;1.48;;
16967;SDS011;64862;54.398;10.126;2024-01-07T07:53:57;4.28;;;1.48;;
16967;SDS011;64862;54.398;10.126;2024-01-07T08:03:59;3.38;;;1.42;;
16967;SDS011;64862;54.398;10.126;2024-01-07T08:14:05;6.13;;;1.70;;
16967;SDS011;64862;54.398;10.126;2024-01-07T08:24:08;3.75;;;1.25;;
16967;SDS011;64862;54.398;10.126;2024-01-07T08:34:12;3.13;;;1.30;;
16967;SDS011;64862;54.398;10.126;2024-01-07T08:44:15;3.90;;;1.50;;
16967;SDS011;64862;54.398;10.126;2024-01-07T08:54:18;6.10;;;1.60;;
16967;SDS011;64862;54.398;10.126;2024-01-07T09:04:20;7.22;;;2.55;;
16967;SDS011;64862;54.398;10.126;2024-01-07T09:14:23;3.85;;;1.65;;
16967;SDS011;64862;54.398;10.126;2024-01-07T09:24:25;3.63;;;1.40;;
16967;SDS011;64862;54.398;10.126;2024-01-07T09:34:29;4.18;;;1.13;;
16967;SDS011;64862;54.398;10.126;2024-01-07T09:44:31;3.35;;;1.52;;
16967;SDS011;64862;54.398;10.126;2024-01-07T09:54:34;4.82;;;1.70;;
16967;SDS011;64862;54.398;10.126;2024-01-07T10:04:39;5.70;;;2.35;;
16967;SDS011;64862;54.398;10.126;2024-01-07T10:14:43;6.22;;;1.77;;
16967;SDS011;64862;54.398;10.126;2024-01-07T10:24:44;5.47;;;2.20;;
16967;SDS011;64862;54.398;10.126;2024-01-07T10:34:50;5.65;;;1.33;;
16967;SDS011;64862;54.398;10.126;2024-01-07T10:45:01;3.55;;;1.40;;
16967;SDS011;64862;54.398;10.126;2024-01-07T10:55:08;2.88;;;1.20;;
16967;SDS011;64862;54.398;10.126;2024-01-07T11:05:15;5.97;;;1.83;;
16967;SDS011;64862;54.398;10.126;2024-01-07T11:25:55;4.25;;;1.30;;
16967;SDS011;64862;54.398;10.126;2024-01-07T11:36:00;3.50;;;1.23;;
16967;SDS011;64862;54.398;10.126;2024-01-07T11:46:02;3.60;;;1.40;;
16967;SDS011;64862;54.398;10.126;2024-01-07T11:56:08;4.97;;;0.95;;
16967;SDS011;64862;54.398;10.126;2024-01-07T12:06:10;3.97;;;1.20;;
16967;SDS011;64862;54.398;10.126;2024-01-07T12:16:15;4.85;;;1.42;;
16967;SDS011;64862;54.398;10.126;2024-01-07T12:26:17;4.40;;;1.48;;
16967;SDS011;64862;54.398;10.126;2024-01-07T12:36:22;5.63;;;1.00;;
16967;SDS011;64862;54.398;10.126;2024-01-07T12:46:24;3.38;;;1.17;;
16967;SDS011;64862;54.398;10.126;2024-01-07T12:56:29;4.05;;;1.40;;
16967;SDS011;64862;54.398;10.126;2024-01-07T13:06:33;4.15;;;1.50;;
16967;SDS011;64862;54.398;10.126;2024-01-07T13:16:37;4.18;;;1.13;;
16967;SDS011;64862;54.398;10.126;2024-01-07T13:26:39;3.50;;;1.50;;
16967;SDS011;64862;54.398;10.126;2024-01-07T13:36:43;2.58;;;1.13;;
16967;SDS011;64862;54.398;10.126;2024-01-07T13:46:47;2.85;;;1.38;;
16967;SDS011;64862;54.398;10.126;2024-01-07T13:56:52;3.88;;;1.50;;
16967;SDS011;64862;54.398;10.126;2024-01-07T14:06:55;4.18;;;1.38;;
16967;SDS011;64862;54.398;10.126;2024-01-07T14:16:59;5.38;;;2.20;;
16967;SDS011;64862;54.398;10.126;2024-01-07T14:27:02;6.72;;;2.03;;
16967;SDS011;64862;54.398;10.126;2024-01-07T14:37:06;4.72;;;1.85;;
16967;SDS011;64862;54.398;10.126;2024-01-07T14:47:10;5.70;;;1.60;;
16967;SDS011;64862;54.398;10.126;2024-01-07T14:57:13;4.35;;;1.23;;
16967;SDS011;64862;54.398;10.126;2024-01-07T15:07:15;4.57;;;1.90;;
16967;SDS011;64862;54.398;10.126;2024-01-07T15:17:19;8.13;;;2.60;;
16967;SDS011;64862;54.398;10.126;2024-01-07T15:27:22;6.30;;;1.90;;
16967;SDS011;64862;54.398;10.126;2024-01-07T15:37:25;4.78;;;2.55;;
16967;SDS011;64862;54.398;10.126;2024-01-07T15:47:27;6.65;;;3.08;;
16967;SDS011;64862;54.398;10.126;2024-01-07T15:57:33;9.02;;;3.80;;
16967;SDS011;64862;54.398;10.126;2024-01-07T16:07:35;7.60;;;3.67;;
16967;SDS011;64862;54.398;10.126;2024-01-07T16:17:39;9.65;;;3.60;;
16967;SDS011;64862;54.398;10.126;2024-01-07T16:27:42;8.82;;;3.78;;
16967;SDS011;64862;54.398;10.126;2024-01-07T16:37:45;9.00;;;3.85;;
16967;SDS011;64862;54.398;10.126;2024-01-07T16:47:47;12.15;;;4.53;;
16967;SDS011;64862;54.398;10.126;2024-01-07T16:57:52;16.02;;;6.13;;
16967;SDS011;64862;54.398;10.126;2024-01-07T17:07:54;10.00;;;4.00;;
16967;SDS011;64862;54.398;10.126;2024-01-07T17:17:57;6.97;;;3.50;;
16967;SDS011;64862;54.398;10.126;2024-01-07T17:28:01;10.85;;;3.92;;
16967;SDS011;64862;54.398;10.126;2024-01-07T17:38:04;10.38;;;3.80;;
16967;SDS011;64862;54.398;10.126;2024-01-07T17:48:07;22.92;;;6.45;;
16967;SDS011;64862;54.398;10.126;2024-01-07T17:58:12;9.13;;;4.10;;
16967;SDS011;64862;54.398;10.126;2024-01-07T18:08:15;8.40;;;4.10;;
16967;SDS011;64862;54.398;10.126;2024-01-07T18:18:18;7.70;;;3.78;;
16967;SDS011;64862;54.398;10.126;2024-01-07T18:28:20;10.40;;;4.28;;
16967;SDS011;64862;54.398;10.126;2024-01-07T18:38:24;6.68;;;3.05;;
16967;SDS011;64862;54.398;10.126;2024-01-07T18:48:26;9.57;;;4.07;;
16967;SDS011;64862;54.398;10.126;2024-01-07T18:58:31;9.88;;;4.15;;
16967;SDS011;64862;54.398;10.126;2024-01-07T19:08:36;9.25;;;4.32;;
16967;SDS011;64862;54.398;10.126;2024-01-07T19:18:41;11.02;;;4.57;;
16967;SDS011;64862;54.398;10.126;2024-01-07T19:28:43;10.60;;;4.18;;
16967;SDS011;64862;54.398;10.126;2024-01-07T19:38:47;9.98;;;3.92;;
16967;SDS011;64862;54.398;10.126;2024-01-07T19:48:51;11.25;;;4.20;;
16967;SDS011;64862;54.398;10.126;2024-01-07T19:58:55;8.80;;;4.00;;
16967;SDS011;64862;54.398;10.126;2024-01-07T20:08:57;9.50;;;4.18;;
16967;SDS011;64862;54.398;10.126;2024-01-07T20:19:01;9.43;;;3.88;;
16967;SDS011;64862;54.398;10.126;2024-01-07T20:29:03;6.82;;;3.50;;
16967;SDS011;64862;54.398;10.126;2024-01-07T20:39:09;8.10;;;3.25;;
16967;SDS011;64862;54.398;10.126;2024-01-07T20:49:12;9.43;;;3.70;;
16967;SDS011;64862;54.398;10.126;2024-01-07T20:59:15;9.38;;;3.10;;
16967;SDS011;64862;54.398;10.126;2024-01-07T21:09:19;7.75;;;2.97;;
16967;SDS011;64862;54.398;10.126;2024-01-07T21:19:23;5.95;;;2.63;;
16967;SDS011;64862;54.398;10.126;2024-01-07T21:29:25;9.82;;;2.90;;
16967;SDS011;64862;54.398;10.126;2024-01-07T21:39:28;4.88;;;2.45;;
16967;SDS011;64862;54.398;10.126;2024-01-07T21:49:30;9.70;;;2.80;;
16967;SDS011;64862;54.398;10.126;2024-01-07T21:59:34;7.57;;;2.72;;
16967;SDS011;64862;54.398;10.126;2024-01-07T22:09:38;5.32;;;2.17;;
16967;SDS011;64862;54.398;10.126;2024-01-07T22:19:41;7.07;;;2.33;;
16967;SDS011;64862;54.398;10.126;2024-01-07T22:29:43;6.00;;;2.00;;
16967;SDS011;64862;54.398;10.126;2024-01-07T22:39:46;11.07;;;2.78;;
16967;SDS011;64862;54.398;10.126;2024-01-07T22:49:49;5.75;;;2.58;;
16967;SDS011;64862;54.398;10.126;2024-01-07T22:59:54;5.82;;;2.10;;
16967;SDS011;64862;54.398;10.126;2024-01-07T23:09:56;4.78;;;1.80;;
16967;SDS011;64862;54.398;10.126;2024-01-07T23:20:01;5.85;;;2.28;;
16967;SDS011;64862;54.398;10.126;2024-01-07T23:30:05;6.97;;;2.20;;
16967;SDS011;64862;54.398;10.126;2024-01-07T23:40:10;7.35;;;1.60;;
16967;SDS011;64862;54.398;10.126;2024-01-07T23:50:13;6.30;;;1.67;;
